createdAt,value
2018-05-02T00:01:13.020Z,74.20
2018-05-02T00:03:42.626Z,74.40
2018-05-02T00:06:11.526Z,74.40
2018-05-02T00:08:40.668Z,73.70
2018-05-02T00:11:09.570Z,74.20
2018-05-02T00:13:39.503Z,73.50
2018-05-02T00:16:08.292Z,73.70
2018-05-02T00:18:37.217Z,73.50
2018-05-02T00:21:06.103Z,73.60
2018-05-02T00:23:34.976Z,73.20
2018-05-02T00:26:03.960Z,73.30
2018-05-02T00:28:32.941Z,73.50
2018-05-02T00:31:02.620Z,73.90
2018-05-02T00:33:32.307Z,73.90
2018-05-02T00:36:01.166Z,74.30
2018-05-02T00:38:30.029Z,73.60
2018-05-02T00:40:59.716Z,73.40
2018-05-02T00:43:28.605Z,73.60
2018-05-02T00:45:57.470Z,74.40
2018-05-02T00:48:26.420Z,73.70
2018-05-02T00:50:55.959Z,73.70
2018-05-02T00:53:24.719Z,73.80
2018-05-02T00:55:53.587Z,73.70
2018-05-02T00:58:22.426Z,74.50
2018-05-02T01:00:52.005Z,74.40
2018-05-02T01:03:20.845Z,74.40
2018-05-02T01:05:49.856Z,74.40
2018-05-02T01:08:18.723Z,74.40
2018-05-02T01:10:48.318Z,75.50
2018-05-02T01:13:17.909Z,74.40
2018-05-02T01:15:46.750Z,74.40
2018-05-02T01:18:15.966Z,74.40
2018-05-02T01:20:44.736Z,75.10
2018-05-02T01:23:13.836Z,75.30
2018-05-02T01:25:43.424Z,75.40
2018-05-02T01:28:12.206Z,75.50
2018-05-02T01:30:40.973Z,75.10
2018-05-02T01:33:09.869Z,74.70
2018-05-02T01:35:38.932Z,75.30
2018-05-02T01:38:07.739Z,74.90
2018-05-02T01:40:36.626Z,74.40
2018-05-02T01:43:05.431Z,74.90
2018-05-02T01:45:34.762Z,74.40
2018-05-02T01:48:03.963Z,75.10
2018-05-02T01:50:32.770Z,74.40
2018-05-02T01:53:01.597Z,74.80
2018-05-02T01:55:31.222Z,74.80
2018-05-02T01:58:00.138Z,75.10
2018-05-02T02:00:28.945Z,75.10
2018-05-02T02:02:58.830Z,75.60
2018-05-02T02:05:28.105Z,75.80
2018-05-02T02:07:57.684Z,75.70
2018-05-02T02:10:26.582Z,75.40
2018-05-02T02:12:56.158Z,76.50
2018-05-02T02:15:24.969Z,76.70
2018-05-02T02:17:53.805Z,76.20
2018-05-02T02:20:22.952Z,76.20
2018-05-02T02:22:51.772Z,75.60
2018-05-02T02:25:20.862Z,76.40
2018-05-02T02:27:50.819Z,75.70
2018-05-02T02:30:20.455Z,75.80
2018-05-02T02:32:49.259Z,75.90
2018-05-02T02:35:18.108Z,76.20
2018-05-02T02:37:46.946Z,76.60
2018-05-02T02:40:15.758Z,75.80
2018-05-02T02:42:44.571Z,76.10
2018-05-02T02:45:13.455Z,76.30
2018-05-02T02:47:42.742Z,76.20
2018-05-02T02:50:11.557Z,76.00
2018-05-02T02:52:41.432Z,75.70
2018-05-02T02:55:10.320Z,75.80
2018-05-02T02:57:39.617Z,75.50
2018-05-02T03:00:09.235Z,76.60
2018-05-02T03:02:38.052Z,76.80
2018-05-02T03:05:06.898Z,75.80
2018-05-02T03:07:35.754Z,75.80
2018-05-02T03:10:04.563Z,75.90
2018-05-02T03:12:33.814Z,76.50
2018-05-02T03:15:03.443Z,75.40
2018-05-02T03:17:32.275Z,75.60
2018-05-02T03:20:02.292Z,75.40
2018-05-02T03:22:31.132Z,74.80
2018-05-02T03:25:00.754Z,74.90
2018-05-02T03:27:29.554Z,74.90
2018-05-02T03:29:58.435Z,74.40
2018-05-02T03:32:27.999Z,74.40
2018-05-02T03:34:57.593Z,74.40
2018-05-02T03:37:26.422Z,73.90
2018-05-02T03:39:55.715Z,74.40
2018-05-02T03:42:24.523Z,74.40
2018-05-02T03:44:53.354Z,74.20
2018-05-02T03:47:22.149Z,74.90
2018-05-02T03:49:50.990Z,74.30
2018-05-02T03:52:19.850Z,75.60
2018-05-02T03:54:48.614Z,74.30
2018-05-02T03:57:17.673Z,74.70
2018-05-02T03:59:58.224Z,74.30
2018-05-02T04:02:39.059Z,74.60
2018-05-02T04:05:19.589Z,74.30
2018-05-02T04:07:48.790Z,74.60
2018-05-02T04:10:18.335Z,74.30
2018-05-02T04:12:47.287Z,74.50
2018-05-02T04:15:16.079Z,74.40
2018-05-02T04:17:46.041Z,75.30
2018-05-02T04:20:14.873Z,75.40
2018-05-02T04:22:43.901Z,75.20
2018-05-02T04:25:13.434Z,75.00
2018-05-02T04:27:42.337Z,75.20
2018-05-02T04:30:11.105Z,75.10
2018-05-02T04:32:40.990Z,75.90
2018-05-02T04:35:09.882Z,76.10
2018-05-02T04:37:38.650Z,75.50
2018-05-02T04:40:07.418Z,75.00
2018-05-02T04:42:36.268Z,74.40
2018-05-02T04:45:05.102Z,74.80
2018-05-02T04:47:33.860Z,74.40
2018-05-02T04:50:02.709Z,74.90
2018-05-02T04:52:31.470Z,74.90
2018-05-02T04:55:00.618Z,74.50
2018-05-02T04:57:29.576Z,74.50
2018-05-02T04:59:58.411Z,74.50
2018-05-02T05:02:27.226Z,74.50
2018-05-02T05:04:56.078Z,74.60
2018-05-02T05:07:24.890Z,74.60
2018-05-02T05:09:53.703Z,74.60
2018-05-02T05:12:22.724Z,75.00
2018-05-02T05:14:51.887Z,75.10
2018-05-02T05:17:20.715Z,75.90
2018-05-02T05:19:50.368Z,75.80
2018-05-02T05:22:19.191Z,75.90
2018-05-02T05:24:49.002Z,75.70
2018-05-02T05:27:17.849Z,75.80
2018-05-02T05:29:46.671Z,76.10
2018-05-02T05:32:15.622Z,76.00
2018-05-02T05:34:45.334Z,76.70
2018-05-02T05:37:14.426Z,77.00
2018-05-02T05:39:43.261Z,76.40
2018-05-02T05:42:12.174Z,77.30
2018-05-02T05:44:40.983Z,76.90
2018-05-02T05:47:09.823Z,77.30
2018-05-02T05:49:39.416Z,77.50
2018-05-02T05:52:08.345Z,77.50
2018-05-02T05:54:37.159Z,77.40
2018-05-02T05:57:05.999Z,76.70
2018-05-02T05:59:34.803Z,76.60
2018-05-02T06:02:04.421Z,76.80
2018-05-02T06:04:34.084Z,76.20
2018-05-02T06:07:02.898Z,76.30
2018-05-02T06:09:31.748Z,76.70
2018-05-02T06:12:00.590Z,76.40
2018-05-02T06:14:29.406Z,76.10
2018-05-02T06:16:58.981Z,76.60
2018-05-02T06:19:27.901Z,76.60
2018-05-02T06:21:57.562Z,76.50
2018-05-02T06:24:26.361Z,76.00
2018-05-02T06:26:55.225Z,75.80
2018-05-02T06:29:24.134Z,75.40
2018-05-02T06:31:52.965Z,75.30
2018-05-02T06:34:21.775Z,75.30
2018-05-02T06:36:50.606Z,75.90
2018-05-02T06:39:19.433Z,75.70
2018-05-02T06:41:48.242Z,75.60
2018-05-02T06:44:17.090Z,75.30
2018-05-02T06:46:45.919Z,75.30
2018-05-02T06:49:16.922Z,75.30
2018-05-02T06:51:45.755Z,75.60
2018-05-02T06:54:15.091Z,75.40
2018-05-02T06:56:43.990Z,75.40
2018-05-02T06:59:13.568Z,75.50
2018-05-02T07:01:42.489Z,75.50
2018-05-02T07:04:11.670Z,75.60
2018-05-02T07:06:40.503Z,75.60
2018-05-02T07:09:10.071Z,75.30
2018-05-02T07:11:39.333Z,75.40
2018-05-02T07:14:09.138Z,75.60
2018-05-02T07:16:37.946Z,75.50
2018-05-02T07:19:06.778Z,75.20
2018-05-02T07:21:35.582Z,75.70
2018-05-02T07:24:04.432Z,75.20
2018-05-02T07:26:33.281Z,75.20
2018-05-02T07:29:02.345Z,75.10
2018-05-02T07:31:31.165Z,75.70
2018-05-02T07:34:00.046Z,75.10
2018-05-02T07:36:29.206Z,75.30
2018-05-02T07:38:58.007Z,75.00
2018-05-02T07:41:26.842Z,74.80
2018-05-02T07:43:55.649Z,74.80
2018-05-02T07:46:24.460Z,75.00
2018-05-02T07:48:54.056Z,75.10
2018-05-02T07:51:22.859Z,75.30
2018-05-02T07:53:52.427Z,74.90
2018-05-02T07:56:22.077Z,75.00
2018-05-02T07:58:52.097Z,75.40
2018-05-02T08:01:21.708Z,75.20
2018-05-02T08:03:51.354Z,76.10
2018-05-02T08:06:20.170Z,75.50
2018-05-02T08:08:48.999Z,75.90
2018-05-02T08:11:18.134Z,75.60
2018-05-02T08:13:46.934Z,77.30
2018-05-02T08:16:15.798Z,74.90
2018-05-02T08:18:45.484Z,74.40
2018-05-02T08:21:14.315Z,74.40
2018-05-02T08:23:43.174Z,74.10
2018-05-02T08:26:12.370Z,73.90
2018-05-02T08:28:41.177Z,73.70
2018-05-02T08:31:09.998Z,72.30
2018-05-02T08:33:39.606Z,72.40
2018-05-02T08:36:08.786Z,72.30
2018-05-02T08:38:37.597Z,72.10
2018-05-02T08:41:07.245Z,71.30
2018-05-02T08:43:36.067Z,71.30
2018-05-02T08:46:04.902Z,70.40
2018-05-02T08:48:34.102Z,71.10
2018-05-02T08:51:03.730Z,70.30
2018-05-02T08:53:32.536Z,70.10
2018-05-02T08:56:01.374Z,69.10
2018-05-02T08:58:30.606Z,69.60
2018-05-02T09:01:00.214Z,69.90
2018-05-02T09:03:29.884Z,69.30
2018-05-02T09:05:59.142Z,69.00
2018-05-02T09:08:28.329Z,69.30
2018-05-02T09:10:57.961Z,67.70
2018-05-02T09:13:26.770Z,67.20
2018-05-02T09:15:55.616Z,68.00
2018-05-02T09:18:24.475Z,68.50
2018-05-02T09:20:53.370Z,67.60
2018-05-02T09:23:22.273Z,66.60
2018-05-02T09:25:51.625Z,67.20
2018-05-02T09:28:20.581Z,67.30
2018-05-02T09:30:49.863Z,67.30
2018-05-02T09:33:19.231Z,67.40
2018-05-02T09:35:49.656Z,67.60
2018-05-02T09:38:18.627Z,67.50
2018-05-02T09:40:47.523Z,66.80
2018-05-02T09:43:17.728Z,67.30
2018-05-02T09:45:46.648Z,67.10
2018-05-02T09:48:16.355Z,67.20
2018-05-02T09:50:45.359Z,67.10
2018-05-02T09:53:14.553Z,67.20
2018-05-02T09:55:44.242Z,66.80
2018-05-02T09:58:13.679Z,66.60
2018-05-02T10:00:42.648Z,66.80
2018-05-02T10:03:12.414Z,65.90
2018-05-02T10:05:41.337Z,65.80
2018-05-02T10:08:10.332Z,65.40
2018-05-02T10:10:39.265Z,64.60
2018-05-02T10:13:09.016Z,62.70
2018-05-02T10:15:38.101Z,62.30
2018-05-02T10:18:07.129Z,63.90
2018-05-02T10:20:36.210Z,63.50
2018-05-02T10:23:06.123Z,62.50
2018-05-02T10:25:35.709Z,63.40
2018-05-02T10:28:04.518Z,63.30
2018-05-02T10:30:33.376Z,63.40
2018-05-02T10:33:03.355Z,62.90
2018-05-02T10:35:32.570Z,62.60
2018-05-02T10:38:01.755Z,62.70
2018-05-02T10:40:30.736Z,63.60
2018-05-02T10:42:59.569Z,61.90
2018-05-02T10:45:28.433Z,63.50
2018-05-02T10:47:58.006Z,62.30
2018-05-02T10:50:26.838Z,62.00
2018-05-02T10:52:55.722Z,61.50
2018-05-02T10:55:24.978Z,62.00
2018-05-02T10:57:53.795Z,61.10
2018-05-02T11:00:23.411Z,61.70
2018-05-02T11:02:52.216Z,61.50
2018-05-02T11:05:21.290Z,60.90
2018-05-02T11:07:50.157Z,60.60
2018-05-02T11:10:19.060Z,61.40
2018-05-02T11:12:47.962Z,61.30
2018-05-02T11:15:17.871Z,61.30
2018-05-02T11:17:46.789Z,61.50
2018-05-02T11:20:16.916Z,61.60
2018-05-02T11:22:45.903Z,62.20
2018-05-02T11:25:15.995Z,60.80
2018-05-02T11:27:45.128Z,60.70
2018-05-02T11:30:14.048Z,61.20
2018-05-02T11:32:43.347Z,61.30
2018-05-02T11:35:13.120Z,60.90
2018-05-02T11:37:42.482Z,60.70
2018-05-02T11:40:11.401Z,61.00
2018-05-02T11:42:40.643Z,60.70
2018-05-02T11:45:10.348Z,59.80
2018-05-02T11:47:40.338Z,59.70
2018-05-02T11:50:09.285Z,58.10
2018-05-02T11:52:38.148Z,59.70
2018-05-02T11:55:06.998Z,58.80
2018-05-02T11:57:35.811Z,58.20
2018-05-02T12:00:05.089Z,58.10
2018-05-02T12:02:34.029Z,58.00
2018-05-02T12:05:03.366Z,58.40
2018-05-02T12:07:32.574Z,58.40
2018-05-02T12:10:01.403Z,58.10
2018-05-02T12:12:30.504Z,58.50
2018-05-02T12:15:00.111Z,58.00
2018-05-02T12:17:28.926Z,58.00
2018-05-02T12:19:57.762Z,58.00
2018-05-02T12:22:26.834Z,58.10
2018-05-02T12:24:55.655Z,57.90
2018-05-02T12:27:24.527Z,59.40
2018-05-02T12:29:53.391Z,58.80
2018-05-02T12:32:22.962Z,60.10
2018-05-02T12:34:51.825Z,60.00
2018-05-02T12:37:20.738Z,58.70
2018-05-02T12:39:49.590Z,58.50
2018-05-02T12:42:19.194Z,58.20
2018-05-02T12:44:48.771Z,58.50
2018-05-02T12:47:17.617Z,58.40
2018-05-02T12:49:46.866Z,57.60
2018-05-02T12:52:15.709Z,57.00
2018-05-02T12:54:45.294Z,55.50
2018-05-02T12:57:14.941Z,56.00
2018-05-02T12:59:43.775Z,55.90
2018-05-02T13:02:13.377Z,55.90
2018-05-02T13:04:43.225Z,56.10
2018-05-02T13:07:12.669Z,55.90
2018-05-02T13:09:41.552Z,54.70
2018-05-02T13:12:10.399Z,54.80
2018-05-02T13:14:39.208Z,55.00
2018-05-02T13:17:08.051Z,53.70
2018-05-02T13:19:36.901Z,51.00
2018-05-02T13:22:05.737Z,52.50
2018-05-02T13:24:34.649Z,51.60
2018-05-02T13:27:03.470Z,52.10
2018-05-02T13:29:32.318Z,49.50
2018-05-02T13:32:01.183Z,48.20
2018-05-02T13:34:30.381Z,47.60
2018-05-02T13:36:59.226Z,48.80
2018-05-02T13:39:28.095Z,47.60
2018-05-02T13:41:56.919Z,48.10
2018-05-02T13:44:25.736Z,48.00
2018-05-02T13:46:54.960Z,47.60
2018-05-02T13:49:24.538Z,47.30
2018-05-02T13:51:53.637Z,46.70
2018-05-02T13:54:22.511Z,46.20
2018-05-02T13:56:51.399Z,46.00
2018-05-02T13:59:20.211Z,46.70
2018-05-02T14:01:49.083Z,45.90
2018-05-02T14:04:18.893Z,44.40
2018-05-02T14:06:48.077Z,43.00
2018-05-02T14:09:17.709Z,42.70
2018-05-02T14:11:46.554Z,42.70
2018-05-02T14:14:15.757Z,43.00
2018-05-02T14:16:44.653Z,43.40
2018-05-02T14:19:13.794Z,45.20
2018-05-02T14:21:42.650Z,43.40
2018-05-02T14:24:11.627Z,40.90
2018-05-02T14:26:40.513Z,38.60
2018-05-02T14:29:09.366Z,40.10
2018-05-02T14:31:38.941Z,41.40
2018-05-02T14:34:08.226Z,41.20
2018-05-02T14:36:37.085Z,42.80
2018-05-02T14:39:07.186Z,41.20
2018-05-02T14:41:36.110Z,40.90
2018-05-02T14:44:05.013Z,40.80
2018-05-02T14:46:33.840Z,39.60
2018-05-02T14:49:02.721Z,41.20
2018-05-02T14:51:31.594Z,37.20
2018-05-02T14:54:00.419Z,33.70
2018-05-02T14:56:29.240Z,37.30
2018-05-02T14:58:58.571Z,40.10
2018-05-02T15:01:28.649Z,39.60
2018-05-02T15:03:58.226Z,39.80
2018-05-02T15:06:27.065Z,39.70
2018-05-02T15:08:55.873Z,39.80
2018-05-02T15:11:25.111Z,38.60
2018-05-02T15:13:53.946Z,35.90
2018-05-02T15:16:22.861Z,38.40
2018-05-02T15:18:52.583Z,38.80
2018-05-02T15:21:22.236Z,38.90
2018-05-02T15:23:51.052Z,38.80
2018-05-02T15:26:19.926Z,39.10
2018-05-02T15:28:48.781Z,38.40
2018-05-02T15:31:17.653Z,36.90
2018-05-02T15:33:47.642Z,36.90
2018-05-02T15:36:17.627Z,37.70
2018-05-02T15:38:46.454Z,37.60
2018-05-02T15:41:15.340Z,35.10
2018-05-02T15:43:44.235Z,36.90
2018-05-02T15:46:13.182Z,37.30
2018-05-02T15:48:42.427Z,37.20
2018-05-02T15:51:11.266Z,37.40
2018-05-02T15:53:40.210Z,36.90
2018-05-02T15:56:09.127Z,36.70
2018-05-02T15:58:38.000Z,36.60
2018-05-02T16:01:06.867Z,36.90
2018-05-02T16:03:36.046Z,37.60
2018-05-02T16:06:05.008Z,36.60
2018-05-02T16:08:33.830Z,37.00
2018-05-02T16:11:02.726Z,37.00
2018-05-02T16:13:31.619Z,36.30
2018-05-02T16:16:00.504Z,35.70
2018-05-02T16:18:29.414Z,36.00
2018-05-02T16:20:58.357Z,35.00
2018-05-02T16:23:27.257Z,35.70
2018-05-02T16:25:56.134Z,35.40
2018-05-02T16:28:24.978Z,35.30
2018-05-02T16:30:53.837Z,35.40
2018-05-02T16:33:23.186Z,35.00
2018-05-02T16:35:51.986Z,34.40
2018-05-02T16:38:20.962Z,35.30
2018-05-02T16:40:49.829Z,34.90
2018-05-02T16:43:18.778Z,35.20
2018-05-02T16:45:47.666Z,34.90
2018-05-02T16:48:16.838Z,35.10
2018-05-02T16:50:45.702Z,35.20
2018-05-02T16:53:14.843Z,35.40
2018-05-02T16:55:43.805Z,35.10
2018-05-02T16:58:13.346Z,35.20
2018-05-02T17:00:42.179Z,35.30
2018-05-02T17:03:12.246Z,35.20
2018-05-02T17:05:41.083Z,35.10
2018-05-02T17:08:09.927Z,34.50
2018-05-02T17:10:38.932Z,34.30
2018-05-02T17:13:07.830Z,34.50
2018-05-02T17:15:36.660Z,34.60
2018-05-02T17:18:05.515Z,31.90
2018-05-02T17:20:34.363Z,32.60
2018-05-02T17:23:03.266Z,32.40
2018-05-02T17:25:32.879Z,33.40
2018-05-02T17:28:02.506Z,33.80
2018-05-02T17:30:31.618Z,33.60
2018-05-02T17:33:00.493Z,33.60
2018-05-02T17:35:29.422Z,34.60
2018-05-02T17:37:58.358Z,35.40
2018-05-02T17:40:27.190Z,35.90
2018-05-02T17:42:56.066Z,36.20
2018-05-02T17:45:25.723Z,36.50
2018-05-02T17:47:54.571Z,36.50
2018-05-02T17:50:23.707Z,36.80
2018-05-02T17:52:52.560Z,36.90
2018-05-02T17:55:21.580Z,37.00
2018-05-02T17:57:50.627Z,37.40
2018-05-02T18:00:20.686Z,37.50
2018-05-02T18:02:50.295Z,37.90
2018-05-02T18:05:19.457Z,37.80
2018-05-02T18:07:48.273Z,38.20
2018-05-02T18:10:17.118Z,38.40
2018-05-02T18:12:45.963Z,38.80
2018-05-02T18:15:14.791Z,40.00
2018-05-02T18:17:43.678Z,39.60
2018-05-02T18:20:13.371Z,40.20
2018-05-02T18:22:42.456Z,40.10
2018-05-02T18:25:12.216Z,40.40
2018-05-02T18:27:42.304Z,40.40
2018-05-02T18:30:11.163Z,40.70
2018-05-02T18:32:40.126Z,41.20
2018-05-02T18:35:08.982Z,41.10
2018-05-02T18:37:37.892Z,41.00
2018-05-02T18:40:07.216Z,41.70
2018-05-02T18:42:36.802Z,42.50
2018-05-02T18:45:05.717Z,42.60
2018-05-02T18:47:34.624Z,42.90
2018-05-02T18:50:03.615Z,43.50
2018-05-02T18:52:32.558Z,43.90
2018-05-02T18:55:01.557Z,44.40
2018-05-02T18:57:30.534Z,44.80
2018-05-02T18:59:59.403Z,45.00
2018-05-02T19:02:29.144Z,45.50
2018-05-02T19:04:58.176Z,45.70
2018-05-02T19:07:27.142Z,45.70
2018-05-02T19:09:56.164Z,45.80
2018-05-02T19:12:26.192Z,45.90
2018-05-02T19:14:55.095Z,46.00
2018-05-02T19:17:24.081Z,46.20
2018-05-02T19:19:58.535Z,46.50
2018-05-02T19:22:28.590Z,47.80
2018-05-02T19:25:03.060Z,48.10
2018-05-02T19:27:31.904Z,48.30
2018-05-02T19:30:00.992Z,48.20
2018-05-02T19:32:35.330Z,48.00
2018-05-02T19:35:04.207Z,48.00
2018-05-02T19:37:33.054Z,47.80
2018-05-02T19:40:07.447Z,48.20
2018-05-02T19:42:42.753Z,48.50
2018-05-02T19:45:11.629Z,49.00
2018-05-02T19:47:41.399Z,49.10
2018-05-02T19:50:10.531Z,49.30
2018-05-02T19:52:45.278Z,49.70
2018-05-02T19:55:14.954Z,49.60
2018-05-02T19:57:43.846Z,49.70
2018-05-02T20:00:18.514Z,49.40
2018-05-02T20:05:42.320Z,49.90
2018-05-02T20:08:16.747Z,50.40
2018-05-02T20:10:51.250Z,50.50
2018-05-02T20:13:26.046Z,50.70
2018-05-02T20:15:55.360Z,50.70
2018-05-02T20:18:24.250Z,50.50
2018-05-02T20:20:53.069Z,50.80
2018-05-02T20:23:21.986Z,50.90
2018-05-02T20:25:50.815Z,50.90
2018-05-02T20:28:19.993Z,51.90
2018-05-02T20:30:48.940Z,52.00
2018-05-02T20:33:18.012Z,52.20
2018-05-02T20:35:46.835Z,52.00
2018-05-02T20:38:16.464Z,52.30
2018-05-02T20:40:45.279Z,52.30
2018-05-02T20:43:14.086Z,52.40
2018-05-02T20:45:42.919Z,52.50
2018-05-02T20:48:11.741Z,52.60
2018-05-02T20:50:40.676Z,52.10
2018-05-02T20:53:09.506Z,52.80
2018-05-02T20:55:41.477Z,53.80
2018-05-02T20:58:10.723Z,53.30
2018-05-02T21:00:39.538Z,53.30
2018-05-02T21:03:08.351Z,53.30
2018-05-02T21:05:37.239Z,53.40
2018-05-02T21:08:06.069Z,53.40
2018-05-02T21:10:35.258Z,53.60
2018-05-02T21:13:04.854Z,53.90
2018-05-02T21:15:33.686Z,53.90
2018-05-02T21:18:02.511Z,53.90
2018-05-02T21:20:31.374Z,54.20
2018-05-02T21:23:00.174Z,54.20
2018-05-02T21:25:28.983Z,54.30
2018-05-02T21:27:57.854Z,54.70
2018-05-02T21:30:26.939Z,55.00
2018-05-02T21:32:56.518Z,55.70
2018-05-02T21:35:25.732Z,55.70
2018-05-02T21:37:54.552Z,55.60
2018-05-02T21:40:24.127Z,56.30
2018-05-02T21:42:53.006Z,56.60
2018-05-02T21:45:22.298Z,56.40
2018-05-02T21:47:51.140Z,56.60
2018-05-02T21:50:20.057Z,57.10
2018-05-02T21:52:49.124Z,56.90
2018-05-02T21:55:17.933Z,56.90
2018-05-02T21:57:47.534Z,57.60
2018-05-02T22:00:16.810Z,57.70
2018-05-02T22:02:46.665Z,57.30
2018-05-02T22:05:15.566Z,57.50
2018-05-02T22:07:45.672Z,58.50
2018-05-02T22:10:14.887Z,58.70
2018-05-02T22:12:44.489Z,58.50
2018-05-02T22:15:14.097Z,58.40
2018-05-02T22:17:42.902Z,58.50
2018-05-02T22:20:12.490Z,58.10
2018-05-02T22:22:41.829Z,58.20
2018-05-02T22:25:10.643Z,58.00
2018-05-02T22:27:39.526Z,58.10
2018-05-02T22:30:08.332Z,58.00
2018-05-02T22:32:37.134Z,58.20
2018-05-02T22:35:05.979Z,58.60
2018-05-02T22:37:35.558Z,59.20
2018-05-02T22:40:04.778Z,59.30
2018-05-02T22:42:33.661Z,59.10
2018-05-02T22:45:02.476Z,59.20
2018-05-02T22:47:31.297Z,59.30
2018-05-02T22:50:00.166Z,59.40
2018-05-02T22:52:29.761Z,59.60
2018-05-02T22:54:58.590Z,59.30
2018-05-02T22:57:27.844Z,59.20
2018-05-02T22:59:56.649Z,59.00
2018-05-02T23:02:26.558Z,59.00
2018-05-02T23:04:56.505Z,59.00
2018-05-02T23:07:25.742Z,59.10
2018-05-02T23:09:54.589Z,59.20
2018-05-02T23:12:23.726Z,59.10
2018-05-02T23:14:53.307Z,59.00
2018-05-02T23:17:22.109Z,59.10
2018-05-02T23:19:51.698Z,59.10
2018-05-02T23:22:20.517Z,59.20
2018-05-02T23:24:50.116Z,60.90
2018-05-02T23:27:19.198Z,60.40
2018-05-02T23:29:48.014Z,60.90
2018-05-02T23:32:17.579Z,62.20
2018-05-02T23:34:46.461Z,62.60
2018-05-02T23:37:15.261Z,61.50
2018-05-02T23:39:44.088Z,61.70
2018-05-02T23:42:12.926Z,61.80
2018-05-02T23:44:41.735Z,61.90
2018-05-02T23:47:10.884Z,62.40
2018-05-02T23:49:39.721Z,62.20
2018-05-02T23:52:08.538Z,62.30
2018-05-02T23:54:37.737Z,62.10
2018-05-02T23:57:07.226Z,62.60
2018-05-02T23:59:36.039Z,62.60
